^^
Station Historical Data
Daily Summary for March 4, 2017 Units:  Metric    English   Both
« Previous Day
Next Day »
Daily Weekly Monthly Yearly Custom
  High: Low: Average:
Temperature: 32.2 °C 17.2 °C 22.9 °C
Dew Point: 11.2 °C 3.8 °C 9.1 °C
Humidity: 63% 17% 45%
Wind Speed: 28.8km/h 0km/h 12.4km/h
Wind Gust: 35.4km/h - -
Wind- - SSW
Pressure: 1009 hPa 1003.3 hPa -
Precipitation: 0 mm    
Historical Graphs
 
 
Tabular Data for March 4, 2017
Time Temperature Dew Point Pressure Wind Wind Speed Wind Gust Humidity Rainfall Rate (Hourly) solar Conditions
00:44 21 °C 10.8 °C 1006.3 hPa SSW 11.1 km/h 16.1 km/h 52% 0 mm 0.0 W/m2
00:49 20.9 °C 10.7 °C 1006.3 hPa SSW 13 km/h 19.3 km/h 52% 0 mm 0.0 W/m2
00:54 20.9 °C 11 °C 1006.3 hPa SSW 13 km/h 19.3 km/h 53% 0 mm 0.0 W/m2
00:59 20.8 °C 10.9 °C 1006.3 hPa SSW 14.3 km/h 19.3 km/h 53% 0 mm 0.0 W/m2
01:04 20.7 °C 10.8 °C 1006.3 hPa SSW 16.3 km/h 19.3 km/h 53% 0 mm 0.0 W/m2
01:09 20.7 °C 11.1 °C 1006.3 hPa SSW 19.5 km/h 19.5 km/h 54% 0 mm 0.0 W/m2
01:19 20.6 °C 11 °C 1006.3 hPa SSW 16.3 km/h 19.3 km/h 54% 0 mm 0.0 W/m2
01:29 20.3 °C 11 °C 1006.3 hPa SSW 11.1 km/h 17.7 km/h 55% 0 mm 0.0 W/m2
01:34 20.3 °C 11.2 °C 1006.3 hPa SSW 13 km/h 17.7 km/h 56% 0 mm 0.0 W/m2
01:40 20.2 °C 11.1 °C 1006.3 hPa SSW 14.3 km/h 17.7 km/h 56% 0 mm 0.0 W/m2
01:50 20.1 °C 11 °C 1006.3 hPa SSW 9.7 km/h 16.1 km/h 56% 0 mm 0.0 W/m2
01:55 20 °C 11 °C 1006.3 hPa SSW 14.3 km/h 16.1 km/h 56% 0 mm 0.0 W/m2
02:00 19.9 °C 10.9 °C 1006.3 hPa SSW 11.1 km/h 14.5 km/h 56% 0 mm 0.0 W/m2
02:05 19.8 °C 10.8 °C 1006.3 hPa SSW 9.7 km/h 14.5 km/h 56% 0 mm 0.0 W/m2
02:15 19.8 °C 10.8 °C 1006.3 hPa SSW 6.4 km/h 11.3 km/h 56% 0 mm 0.0 W/m2
02:25 19.7 °C 10.9 °C 1006.3 hPa SSW 7.9 km/h 12.9 km/h 57% 0 mm 0.0 W/m2
02:30 19.6 °C 10.8 °C 1006 hPa SSW 13 km/h 14.5 km/h 57% 0 mm 0.0 W/m2
02:40 19.5 °C 10.8 °C 1006 hPa SSW 9.7 km/h 12.9 km/h 57% 0 mm 0.0 W/m2
02:45 19.4 °C 10.7 °C 1006 hPa SSW 7.9 km/h 12.9 km/h 57% 0 mm 0.0 W/m2
02:50 19.4 °C 10.7 °C 1006 hPa SSW 6.4 km/h 12.9 km/h 57% 0 mm 0.0 W/m2
03:00 19.3 °C 10.6 °C 1005.6 hPa SSW 7.9 km/h 11.3 km/h 57% 0 mm 0.0 W/m2
03:16 19.3 °C 10.6 °C 1005.6 hPa SSW 6.4 km/h 9.7 km/h 57% 0 mm 0.0 W/m2
03:21 19.2 °C 10.5 °C 1005.6 hPa SSW 9.7 km/h 9.7 km/h 57% 0 mm 0.0 W/m2
03:26 19.2 °C 10.5 °C 1005.6 hPa SSW 7.9 km/h 9.7 km/h 57% 0 mm 0.0 W/m2
03:37 19.1 °C 10.4 °C 1005.3 hPa SSW 6.4 km/h 8 km/h 57% 0 mm 0.0 W/m2
03:46 18.9 °C 10.5 °C 1005.3 hPa SSW 6.4 km/h 9.7 km/h 58% 0 mm 0.0 W/m2
04:01 18.7 °C 10.5 °C 1005.3 hPa SSW 9.7 km/h 11.3 km/h 59% 0 mm 0.0 W/m2
04:12 18.8 °C 10.6 °C 1005.3 hPa SSW 7.9 km/h 14.5 km/h 59% 0 mm 0.0 W/m2
04:26 18.7 °C 10.3 °C 1005.3 hPa SSW 9.7 km/h 9.7 km/h 58% 0 mm 0.0 W/m2
04:32 18.6 °C 10.4 °C 1005.3 hPa SSW 6.4 km/h 9.7 km/h 59% 0 mm 0.0 W/m2
04:42 18.5 °C 10.3 °C 1005.3 hPa SSW 3.2 km/h 6.4 km/h 59% 0 mm 0.0 W/m2
04:52 18.3 °C 10.1 °C 1005 hPa SSW 11.1 km/h 11.3 km/h 59% 0 mm 0.0 W/m2
05:02 18.2 °C 10.3 °C 1005 hPa SSW 7.9 km/h 11.3 km/h 60% 0 mm 0.0 W/m2
05:07 18.2 °C 10.3 °C 1005 hPa SSW 7.9 km/h 11.3 km/h 60% 0 mm 0.0 W/m2
05:12 18.1 °C 10.2 °C 1005 hPa SSW 9.7 km/h 12.9 km/h 60% 0 mm 0.0 W/m2
05:17 18.1 °C 10.2 °C 1005 hPa SSW 13 km/h 13 km/h 60% 0 mm 0.0 W/m2
05:22 18.1 °C 10.2 °C 1005 hPa SSW 11.1 km/h 14.5 km/h 60% 0 mm 0.0 W/m2
05:27 18.1 °C 10.2 °C 1005 hPa SSW 11.1 km/h 16.1 km/h 60% 0 mm 0.0 W/m2
05:32 18 °C 10.1 °C 1005 hPa SSW 9.7 km/h 17.7 km/h 60% 0 mm 0.0 W/m2
05:37 18 °C 10.1 °C 1005 hPa SSW 7.9 km/h 12.9 km/h 60% 0 mm 0.0 W/m2
05:42 17.9 °C 10 °C 1005 hPa SSW 6.4 km/h 11.3 km/h 60% 0 mm 0.0 W/m2
05:47 17.9 °C 10 °C 1005 hPa SSW 9.7 km/h 9.7 km/h 60% 0 mm 0.0 W/m2
05:52 17.8 °C 10.2 °C 1005 hPa SSW 11.1 km/h 11.3 km/h 61% 0 mm 0.0 W/m2
05:57 17.8 °C 10.2 °C 1005 hPa SSW 7.9 km/h 9.7 km/h 61% 0 mm 0.0 W/m2
06:01 17.7 °C 10.3 °C 1005 hPa SSW 6.4 km/h 9.7 km/h 62% 0 mm 0.0 W/m2
06:10 17.7 °C 10.3 °C 1005 hPa SSW 7.9 km/h 9.7 km/h 62% 0 mm 0.0 W/m2
06:23 17.6 °C 10.2 °C 1005 hPa SSW 7.9 km/h 12.9 km/h 62% 0 mm 0.0 W/m2
06:37 17.5 °C 10.1 °C 1005.3 hPa SSW 11.1 km/h 11.3 km/h 62% 0 mm 0.0 W/m2
06:41 17.4 °C 10.3 °C 1005.6 hPa SSW 7.9 km/h 8 km/h 63% 0 mm 0.0 W/m2
06:56 17.2 °C 10.1 °C 1005.6 hPa SSW 6.4 km/h 8 km/h 63% 0 mm 12.0 W/m2
07:16 17.3 °C 10.2 °C 1005.6 hPa SSW 11.1 km/h 14.5 km/h 63% 0 mm 37.0 W/m2
07:21 17.6 °C 10.2 °C 1006 hPa SSW 13 km/h 16.1 km/h 62% 0 mm 69.0 W/m2
07:36 17.8 °C 10.4 °C 1006 hPa SSW 14.3 km/h 16.1 km/h 62% 0 mm 123.0 W/m2
07:57 18.1 °C 10.5 °C 1006 hPa SSW 11.1 km/h 14.5 km/h 61% 0 mm 192.0 W/m2
08:01 18.4 °C 10.5 °C 1006.3 hPa SSW 13 km/h 14.5 km/h 60% 0 mm 236.0 W/m2
08:23 18.8 °C 10.6 °C 1006.3 hPa SSW 17.7 km/h 17.7 km/h 59% 0 mm 292.0 W/m2
08:31 19.1 °C 10.6 °C 1006.3 hPa SSW 14.3 km/h 20.9 km/h 58% 0 mm 343.0 W/m2
08:53 19.4 °C 10.7 °C 1006.3 hPa SW 17.7 km/h 19.3 km/h 57% 0 mm 397.0 W/m2
08:57 19.7 °C 10.7 °C 1006.3 hPa SW 17.7 km/h 19.3 km/h 56% 0 mm 432.0 W/m2
09:18 20.2 °C 10.9 °C 1006.7 hPa SW 16.3 km/h 22.5 km/h 55% 0 mm 485.0 W/m2
09:32 20.5 °C 10.9 °C 1006.7 hPa SW 16.3 km/h 22.5 km/h 54% 0 mm 533.0 W/m2
09:40 20.7 °C 10.8 °C 1006.7 hPa SW 17.7 km/h 22.5 km/h 53% 0 mm 564.0 W/m2
11:55 27.3 °C 8.7 °C 1005.6 hPa SW 4.7 km/h 12.9 km/h 31% 0 mm 867.0 W/m2
12:10 27.8 °C 8.6 °C 1005.6 hPa Calm   8 km/h 30% 0 mm 888.0 W/m2
12:19 28.2 °C 8 °C 1005.6 hPa Calm     28% 0 mm 896.0 W/m2
12:42 28.6 °C 7.8 °C 1005.3 hPa Calm     27% 0 mm 907.0 W/m2
12:57 29.1 °C 7.6 °C 1005.3 hPa SW 14.3 km/h 16.1 km/h 26% 0 mm 914.0 W/m2
13:05 29.5 °C 8 °C 1005.3 hPa SW 9.7 km/h 11.3 km/h 26% 0 mm 911.0 W/m2
13:12 29.5 °C 8 °C 1005.3 hPa SW 9.7 km/h 11.3 km/h 26% 0 mm 911.0 W/m2
13:20 29.9 °C 7.7 °C 1005 hPa SW 7.9 km/h 16.1 km/h 25% 0 mm 911.0 W/m2
13:42 29.6 °C 8.1 °C 1005 hPa SW 14.3 km/h 16.1 km/h 26% 0 mm 904.0 W/m2
13:50 30.1 °C 9 °C 1005 hPa SSW 16.3 km/h 20.9 km/h 27% 0 mm 891.0 W/m2
13:57 30.1 °C 9 °C 1005 hPa SSW 16.3 km/h 20.9 km/h 27% 0 mm 891.0 W/m2
14:05 30.1 °C 9 °C 1004.6 hPa SSW 11.1 km/h 19.3 km/h 27% 0 mm 875.0 W/m2
14:13 30.1 °C 9 °C 1004.6 hPa SSW 11.1 km/h 19.3 km/h 27% 0 mm 875.0 W/m2
14:20 30.5 °C 8.2 °C 1004.6 hPa SSW 11.1 km/h 14.5 km/h 25% 0 mm 856.0 W/m2
14:41 30.8 °C 9.1 °C 1004.6 hPa SSW 9.7 km/h 14.5 km/h 26% 0 mm 831.0 W/m2
14:46 30.8 °C 8.5 °C 1004.3 hPa Calm   14.5 km/h 25% 0 mm 819.0 W/m2
14:56 31.2 °C 8.8 °C 1003.9 hPa SSW 14.3 km/h 16.1 km/h 25% 0 mm 795.0 W/m2
15:17 31.6 °C 7.9 °C 1003.9 hPa Calm     23% 0 mm 758.0 W/m2
15:33 31.7 °C 8 °C 1003.6 hPa SSW 9.7 km/h 16.1 km/h 23% 0 mm 724.0 W/m2
15:46 32.2 °C 7.8 °C 1003.3 hPa South 11.1 km/h 20.9 km/h 22% 0 mm 686.0 W/m2
15:57 31.7 °C 7.4 °C 1003.6 hPa South 16.3 km/h 22.5 km/h 22% 0 mm 657.0 W/m2
16:05 31.7 °C 7.4 °C 1003.3 hPa South 13 km/h 16.1 km/h 22% 0 mm 629.0 W/m2
16:11 32.1 °C 6.3 °C 1003.3 hPa South 14.3 km/h 22.5 km/h 20% 0 mm 599.0 W/m2
16:30 32.1 °C 5.6 °C 1003.3 hPa SW 14.3 km/h 27.4 km/h 19% 0 mm 552.0 W/m2
16:36 32.1 °C 5.6 °C 1003.3 hPa SSW 16.3 km/h 22.5 km/h 19% 0 mm 536.0 W/m2
16:45 31.9 °C 5.4 °C 1003.3 hPa SSW 13 km/h 20.9 km/h 19% 0 mm 504.0 W/m2
16:51 32.1 °C 4.8 °C 1003.3 hPa SSW 16.3 km/h 24.1 km/h 18% 0 mm 469.0 W/m2
17:06 31.9 °C 3.8 °C 1003.3 hPa SSW 13 km/h 20.9 km/h 17% 0 mm 431.0 W/m2
17:17 31.6 °C 4.4 °C 1003.3 hPa South 13 km/h 20.9 km/h 18% 0 mm 401.0 W/m2
17:21 31.6 °C 4.4 °C 1003.6 hPa SSW 24.1 km/h 25.7 km/h 18% 0 mm 364.0 W/m2
17:41 31.2 °C 4.1 °C 1003.6 hPa South 19.5 km/h 24.1 km/h 18% 0 mm 308.0 W/m2
17:53 31 °C 4.7 °C 1003.6 hPa South 24.1 km/h 27.4 km/h 19% 0 mm 274.0 W/m2
18:05 30.7 °C 4.4 °C 1003.9 hPa South 28.8 km/h 35.4 km/h 19% 0 mm 213.0 W/m2
18:13 30.1 °C 4.7 °C 1003.9 hPa SSW 20.9 km/h 32.2 km/h 20% 0 mm 165.0 W/m2
20:28 24.2 °C 7.3 °C 1006.3 hPa SW 17.7 km/h 27.4 km/h 34% 0 mm 0.0 W/m2
20:41 23.9 °C 7.5 °C 1006.7 hPa SSW 27.4 km/h 29 km/h 35% 0 mm 0.0 W/m2
21:08 23.4 °C 7.9 °C 1007.3 hPa SSW 19.5 km/h 27.4 km/h 37% 0 mm 0.0 W/m2
21:16 23.3 °C 7.8 °C 1007.3 hPa SSW 19.5 km/h 25.7 km/h 37% 0 mm 0.0 W/m2
21:49 22.2 °C 8 °C 1008 hPa South 28.8 km/h 29 km/h 40% 0 mm 0.0 W/m2
22:04 21.7 °C 7.5 °C 1008.4 hPa SSW 19.5 km/h 20.9 km/h 40% 0 mm 0.0 W/m2
22:14 21.4 °C 7.6 °C 1008.4 hPa South 17.7 km/h 20.9 km/h 41% 0 mm 0.0 W/m2
22:33 21.1 °C 7.7 °C 1008.7 hPa SSW 14.3 km/h 25.7 km/h 42% 0 mm 0.0 W/m2
23:21 19.9 °C 7.6 °C 1009 hPa SSW 17.7 km/h 22.5 km/h 45% 0 mm 0.0 W/m2
23:31 19.7 °C 7.4 °C 1009 hPa SSW 19.5 km/h 24.1 km/h 45% 0 mm 0.0 W/m2
23:36 19.6 °C 7.3 °C 1009 hPa SSW 17.7 km/h 22.5 km/h 45% 0 mm 0.0 W/m2
23:41 19.5 °C 7.6 °C 1009 hPa SSW 16.3 km/h 19.3 km/h 46% 0 mm 0.0 W/m2
23:51 19.3 °C 7.7 °C 1009 hPa SSW 19.5 km/h 20.9 km/h 47% 0 mm 0.0 W/m2
23:56 19.2 °C 7.6 °C 1009 hPa SSW 17.7 km/h 19.3 km/h 47% 0 mm 0.0 W/m2
Canyon Roadhouse, Fishriver Canyon, Namibia
Compliments of Weather Underground - 2.25 mb